Terminal Aerodrome Forecast
Issued by NWS

Home | Current Version | Previous Version | Text Only | Print | Product List | Glossary On
Versions: 1 2 3 4 5 6 7 8 9 10 11 12 13 14 15 16
000
FTUS44 KLZK 022300
TAFHRO
TAF
KHRO 022328Z 0300/0324 18006KT P6SM BKN250
     FM030900 16006KT P6SM VCSH SCT025 BKN050
     FM031500 20008KT P6SM SCT040 SCT250=

USA.gov is the U.S. government's official web portal to all federal, state and local government web resources and services.